KMOBKBFM

Guest
Details From KMOB - Mobile Rgnl
To KBFM - MOBILE DOWNTOWN
Flight Number -
Tags generated
Created
Modified
Stats Distance 10 nm / 18 km
Max Altitude 0 ft / 0 m
Waypoints 2
Social Downloads 6
Likes 0
Share VATSIM

Download

Looking for another format? Having issues loading an existing format? Contact us
Advertisement - Login to hide

Notes

Basic altitude profile: - Ascent Rate: 2500ft/min - Ascent Speed: 250kts - Cruise Altitude: 35000ft - Cruise Speed: 420kts - Descent Rate: 1500ft/min - Descent Speed: 250kts Options: - Use NATs: yes - Use PACOTS: yes - Use low airways: yes - Use high airways: yes

Route

KMOB KBFM

ID Type Via Altitude Latitude Longitude Leg Dist Tot Dist Heading (true) Name
O KMOB APT - 0 ft / 0 m 30.69068˚ -88.24129˚ - 0 nm - Mobile Rgnl
O KBFM APT - 0 ft / 0 m 30.62721˚ -88.06789˚ 9 nm 9 nm 113° / 113° MOBILE DOWNTOWN

Altitude Profile

Advertisement - Login to hide

KMOB

Details ICAO KMOB (MOB)
Name Mobile Rgnl
Region United States
Timezone America/Chicago (UTC-6.0)
Stats Elevation 219 ft / 67 m (AMSL)
Location 30.690682° -88.241293°
Runways 2
Magnetic Variation 2.135° W

METAR

KMOB 142256Z 19003KT 10SM FEW040 FEW080 BKN250 13/06 A2997 RMK AO2 SLP149 T01330061 $

Decode

TAF

KMOB 141722Z 1418/1518 26006KT P6SM FEW060 FEW150 FM150000 VRB02KT P6SM FEW250 FM151200 35006KT P6SM BKN070

Decode

Departure Runways

ID Width Length Bearing (true) Bearing (mag) Surface Threshold Offset Overrun Length
14 150 ft / 46 m 8,534 ft / 2,601 m 144.33° 146.46° Asphalt 0 ft / 0 m 0 ft / 0 m
18 150 ft / 46 m 4,380 ft / 1,335 m 179.98° 182.11° Asphalt 0 ft / 0 m 0 ft / 0 m
32 150 ft / 46 m 8,534 ft / 2,601 m 324.34° 326.47° Asphalt 0 ft / 0 m 1,007 ft / 307 m
36 150 ft / 46 m 4,380 ft / 1,335 m 359.98° 2.11° Asphalt 0 ft / 0 m 599 ft / 183 m

KBFM

Details ICAO KBFM (BFM)
Name MOBILE DOWNTOWN
Region United States
Timezone America/Chicago (UTC-6.0)
Stats Elevation 26 ft / 8 m (AMSL)
Location 30.627208° -88.067886°
Runways 2
Magnetic Variation 2.245° W

METAR

KBFM 142253Z 18003KT 9SM CLR 13/08 A2998 RMK AO2 SLP152 T01330083

Decode

TAF

TAF KBFM 141722Z 1418/1518 26007KT P6SM FEW060 FEW150 FM150000 VRB03KT P6SM FEW250 FM151200 34007KT P6SM BKN070

Decode

Destination Runways

ID Width Length Bearing (true) Bearing (mag) Surface Threshold Offset Overrun Length
14 150 ft / 46 m 9,628 ft / 2,935 m 138.88° 141.12° Asphalt 0 ft / 0 m 991 ft / 302 m
18 150 ft / 46 m 7,825 ft / 2,385 m 179.97° 182.21° Asphalt 0 ft / 0 m 0 ft / 0 m
32 150 ft / 46 m 9,628 ft / 2,935 m 318.89° 321.13° Asphalt 0 ft / 0 m 989 ft / 301 m
36 150 ft / 46 m 7,825 ft / 2,385 m 359.97° 2.21° Asphalt 0 ft / 0 m 0 ft / 0 m

Approach Navaids

Runway Type Ident Frequency Range Bearing (true) Bearing (mag) Slope Elevation
32 Localiser IRUJ 108.50 MHz 18 nm / 33 km 318.89° 321.13° - 26 ft / 8 m (AMSL)
32 Glidescope IRUJ 108.50 MHz 10 nm / 19 km 318.89° 321.13° 3.00° 21 ft / 6 m (AMSL)
32 DME IRUJ 108.50 MHz 18 nm / 33 km - - - 26 ft / 8 m (AMSL)